Time;durP1;ratioP1;P1;durP2;ratioP2;P2;SDS_P1;SDS_P2;PMS_P1;PMS_P2;Temp;Humidity;BMP_temperature;BMP_pressure;BME280_temperature;BME280_humidity;BME280_pressure;Samples;Min_cycle;Max_cycle;Signal;HPM_P1;HPM_P2
2022/04/07 00:00:20;;;;;;;10.13;6.80;;;9.00;88.10;;;;;;5073952;28;20073;-82
2022/04/07 00:02:46;;;;;;;9.35;6.78;;;9.00;88.30;;;;;;5071304;28;20036;-82
2022/04/07 00:05:13;;;;;;;9.40;7.15;;;9.00;88.10;;;;;;5065063;28;20032;-82
2022/04/07 00:07:38;;;;;;;11.07;7.43;;;9.00;88.00;;;;;;5060200;28;20131;-83
2022/04/07 00:10:04;;;;;;;11.38;7.63;;;8.90;88.40;;;;;;5072549;28;20565;-82
2022/04/07 00:12:32;;;;;;;8.60;7.43;;;9.00;88.30;;;;;;5055267;28;20098;-83
2022/04/07 00:14:59;;;;;;;10.55;7.82;;;8.90;88.40;;;;;;5064635;28;20119;-82
2022/04/07 00:17:25;;;;;;;10.70;7.38;;;8.90;88.50;;;;;;5077065;28;20016;-83
2022/04/07 00:19:51;;;;;;;11.15;7.95;;;9.00;88.00;;;;;;5074598;28;20112;-83
2022/04/07 00:22:17;;;;;;;12.30;8.07;;;9.00;88.20;;;;;;5073130;28;20123;-82
2022/04/07 00:24:43;;;;;;;11.65;7.40;;;9.00;88.10;;;;;;5074834;28;20132;-82
2022/04/07 00:27:08;;;;;;;9.82;7.65;;;9.00;88.10;;;;;;5078040;28;20025;-83
2022/04/07 00:29:34;;;;;;;10.32;7.18;;;9.00;88.40;;;;;;5075530;28;20060;-83
2022/04/07 00:32:03;;;;;;;11.65;7.88;;;9.00;88.00;;;;;;5077297;28;20318;-82
2022/04/07 00:34:29;;;;;;;9.32;6.63;;;9.00;87.90;;;;;;5062627;28;20048;-82
2022/04/07 00:36:55;;;;;;;10.32;7.80;;;9.00;87.90;;;;;;5071207;28;20516;-83
2022/04/07 00:39:20;;;;;;;10.38;7.07;;;9.00;87.80;;;;;;5063268;28;20116;-83
2022/04/07 00:41:46;;;;;;;10.75;7.75;;;9.00;87.70;;;;;;5077712;28;20468;-83
2022/04/07 00:44:12;;;;;;;9.40;7.47;;;9.10;87.50;;;;;;5078766;28;20107;-82
2022/04/07 00:46:38;;;;;;;10.00;7.43;;;9.00;87.80;;;;;;5076030;28;20024;-83
2022/04/07 00:49:06;;;;;;;11.60;7.95;;;9.00;87.80;;;;;;5073915;28;20028;-82
2022/04/07 00:51:33;;;;;;;8.05;6.07;;;9.00;88.30;;;;;;5073436;28;20024;-82
2022/04/07 00:53:59;;;;;;;9.05;7.57;;;9.00;88.10;;;;;;5068565;28;20032;-82
2022/04/07 00:56:26;;;;;;;12.52;7.35;;;9.00;88.10;;;;;;5077398;28;20017;-83
2022/04/07 00:58:53;;;;;;;9.73;6.53;;;9.00;87.70;;;;;;5077824;28;20028;-83
2022/04/07 01:01:24;;;;;;;10.48;6.72;;;8.90;88.00;;;;;;5077075;28;20028;-82
2022/04/07 01:03:50;;;;;;;;;;;9.00;87.70;;;;;;5074926;28;20079;-82
2022/04/07 01:06:18;;;;;;;9.48;6.32;;;8.90;87.70;;;;;;5074820;28;19905;-82
2022/04/07 01:08:43;;;;;;;10.57;6.82;;;8.90;87.80;;;;;;5076905;28;20082;-82
2022/04/07 01:11:09;;;;;;;10.40;5.88;;;8.70;88.20;;;;;;5076653;28;20025;-82
2022/04/07 01:13:52;;;;;;;9.48;6.82;;;8.70;88.40;;;;;;5076690;28;20387;-82
2022/04/07 01:16:19;;;;;;;10.30;6.57;;;8.60;88.30;;;;;;5077945;28;20028;-82
2022/04/07 01:18:46;;;;;;;9.90;6.80;;;8.70;88.40;;;;;;5077135;28;20017;-82
2022/04/07 01:21:14;;;;;;;10.02;6.00;;;8.70;88.10;;;;;;5070094;28;20112;-82
2022/04/07 01:23:45;;;;;;;10.07;6.18;;;8.80;88.20;;;;;;5077118;28;20050;-82
2022/04/07 01:26:10;;;;;;;8.90;6.43;;;8.80;88.20;;;;;;5076345;28;20034;-82
2022/04/07 01:28:36;;;;;;;9.98;6.20;;;8.80;88.00;;;;;;5072844;28;20095;-82
2022/04/07 01:31:02;;;;;;;9.60;5.80;;;8.80;88.20;;;;;;5078148;28;20037;-82
2022/04/07 01:33:28;;;;;;;12.63;6.47;;;8.80;88.30;;;;;;5076888;28;20375;-82
2022/04/07 01:35:54;;;;;;;9.75;6.28;;;8.80;88.10;;;;;;5070407;28;20404;-82
2022/04/07 01:38:20;;;;;;;8.25;5.75;;;8.80;87.90;;;;;;5057056;28;20021;-82
2022/04/07 01:40:47;;;;;;;10.40;6.85;;;8.80;88.20;;;;;;5079814;28;20020;-83
2022/04/07 01:43:14;;;;;;;8.73;6.75;;;8.80;88.30;;;;;;5083832;28;20115;-82
2022/04/07 01:45:40;;;;;;;9.05;6.63;;;8.80;88.30;;;;;;5076786;28;20107;-83
2022/04/07 01:48:08;;;;;;;11.77;7.05;;;8.80;88.10;;;;;;5074743;28;20056;-82
2022/04/07 01:50:37;;;;;;;9.82;6.50;;;8.80;88.20;;;;;;5074373;28;20391;-83
2022/04/07 01:53:03;;;;;;;9.43;6.63;;;8.90;88.10;;;;;;5076882;28;20034;-82
2022/04/07 01:55:30;;;;;;;8.75;5.88;;;8.90;88.00;;;;;;5068790;28;20107;-82
2022/04/07 01:57:56;;;;;;;9.95;6.88;;;8.90;87.80;;;;;;5075780;28;20046;-82
2022/04/07 02:00:22;;;;;;;8.77;6.45;;;9.00;87.60;;;;;;5075750;28;20506;-82
2022/04/07 02:02:48;;;;;;;12.23;6.75;;;8.90;87.70;;;;;;5074448;28;20032;-82
2022/04/07 02:05:15;;;;;;;10.60;6.90;;;9.00;87.70;;;;;;5073534;28;20444;-82
2022/04/07 02:07:42;;;;;;;8.18;5.97;;;8.90;87.90;;;;;;5075087;28;20377;-82
2022/04/07 02:10:10;;;;;;;10.90;6.72;;;8.90;88.20;;;;;;5060913;28;20047;-83
2022/04/07 02:12:37;;;;;;;10.43;6.95;;;8.90;88.90;;;;;;5074609;28;20403;-83
2022/04/07 02:15:06;;;;;;;8.05;6.47;;;8.70;89.80;;;;;;5066945;28;20040;-82
2022/04/07 02:17:32;;;;;;;11.00;7.65;;;8.60;90.40;;;;;;5067853;28;20032;-82
2022/04/07 02:19:59;;;;;;;12.65;7.95;;;8.50;90.90;;;;;;5072754;28;20024;-83
2022/04/07 02:22:28;;;;;;;13.73;7.75;;;8.50;90.90;;;;;;5073151;28;20024;-83
2022/04/07 02:24:58;;;;;;;11.65;8.40;;;8.40;91.40;;;;;;5072945;28;20493;-82
2022/04/07 02:27:24;;;;;;;12.30;8.52;;;8.40;91.10;;;;;;5074994;28;20059;-82
2022/04/07 02:29:49;;;;;;;10.65;8.38;;;8.60;90.40;;;;;;5075865;28;20032;-83
2022/04/07 02:32:15;;;;;;;14.00;9.73;;;8.60;90.00;;;;;;5075015;28;20032;-82
2022/04/07 02:34:41;;;;;;;15.68;9.45;;;8.50;90.30;;;;;;5070891;28;20032;-83
2022/04/07 02:37:07;;;;;;;13.73;9.95;;;8.60;90.20;;;;;;5057709;28;20127;-83
2022/04/07 02:39:33;;;;;;;15.50;11.05;;;8.60;89.70;;;;;;5072477;28;20470;-83
2022/04/07 02:41:58;;;;;;;13.05;9.55;;;8.60;89.60;;;;;;5074623;28;20024;-83
2022/04/07 02:44:24;;;;;;;13.20;9.57;;;8.70;89.10;;;;;;5072880;28;20119;-82
2022/04/07 02:46:50;;;;;;;12.43;10.07;;;8.80;88.90;;;;;;5072652;28;20456;-83
2022/04/07 02:49:15;;;;;;;13.45;10.15;;;8.80;88.90;;;;;;5072991;28;20038;-82
2022/04/07 02:51:41;;;;;;;12.90;9.50;;;8.80;88.40;;;;;;5072752;28;20025;-83
2022/04/07 02:54:06;;;;;;;14.07;10.20;;;8.90;88.30;;;;;;5073737;28;20036;-83
2022/04/07 02:56:32;;;;;;;13.52;9.23;;;8.80;88.70;;;;;;5073322;28;20468;-83
2022/04/07 02:58:58;;;;;;;12.27;9.45;;;8.80;88.60;;;;;;5062012;28;20067;-83
2022/04/07 03:01:23;;;;;;;10.85;9.05;;;8.80;88.60;;;;;;5071960;28;20391;-83
2022/04/07 03:03:49;;;;;;;10.77;8.68;;;8.70;88.80;;;;;;5068399;28;20545;-83
2022/04/07 03:06:16;;;;;;;10.55;8.25;;;8.80;88.30;;;;;;5070722;28;20139;-83
2022/04/07 03:08:43;;;;;;;10.77;8.40;;;8.90;88.30;;;;;;5074851;28;20082;-83
2022/04/07 03:11:09;;;;;;;9.32;7.18;;;8.80;88.40;;;;;;5072420;28;20031;-83
2022/04/07 03:13:38;;;;;;;9.60;7.57;;;8.90;88.30;;;;;;5074667;28;20046;-83
2022/04/07 03:16:04;;;;;;;9.55;7.20;;;8.90;88.00;;;;;;5072025;28;20020;-82
2022/04/07 03:18:30;;;;;;;7.90;6.60;;;8.90;88.10;;;;;;5073747;28;20450;-83
2022/04/07 03:20:55;;;;;;;9.43;6.68;;;8.90;87.90;;;;;;5070126;28;20054;-82
2022/04/07 03:23:21;;;;;;;9.77;5.90;;;9.00;87.90;;;;;;5073872;28;20044;-82
2022/04/07 03:25:47;;;;;;;8.57;6.13;;;9.00;87.30;;;;;;5073002;28;20580;-83
2022/04/07 03:28:12;;;;;;;8.10;6.25;;;9.00;87.10;;;;;;5071634;28;20024;-83
2022/04/07 03:30:38;;;;;;;8.27;6.05;;;9.00;87.50;;;;;;5071106;28;20400;-83
2022/04/07 03:33:06;;;;;;;8.55;6.10;;;9.00;87.30;;;;;;5071567;28;20036;-82
2022/04/07 03:35:36;;;;;;;11.13;5.60;;;9.00;87.50;;;;;;5067966;28;20033;-83
2022/04/07 03:38:02;;;;;;;7.57;5.95;;;9.00;87.60;;;;;;5057257;28;20518;-83
2022/04/07 03:40:28;;;;;;;7.55;6.20;;;8.90;87.80;;;;;;5064560;28;20024;-83
2022/04/07 03:42:53;;;;;;;8.77;5.57;;;9.00;87.80;;;;;;5056304;28;20035;-82
2022/04/07 03:45:19;;;;;;;6.93;5.15;;;9.00;87.70;;;;;;5073758;28;20424;-82
2022/04/07 03:47:46;;;;;;;8.23;5.82;;;9.00;87.60;;;;;;5041373;28;20064;-82
2022/04/07 03:50:11;;;;;;;10.43;5.97;;;9.00;87.80;;;;;;5072399;28;20064;-82
2022/04/07 03:52:37;;;;;;;10.68;7.00;;;9.00;87.70;;;;;;5054960;28;20021;-82
2022/04/07 03:55:04;;;;;;;8.98;6.43;;;8.90;88.40;;;;;;5067438;28;20486;-83
2022/04/07 03:57:29;;;;;;;9.63;6.78;;;8.90;89.00;;;;;;5055971;28;20283;-83
2022/04/07 03:59:55;;;;;;;10.23;7.53;;;8.80;89.70;;;;;;5055477;28;20040;-83
2022/04/07 04:02:20;;;;;;;9.13;7.47;;;8.70;89.60;;;;;;5053893;28;20100;-82
2022/04/07 04:04:46;;;;;;;12.55;7.60;;;8.60;90.20;;;;;;5053502;28;20020;-83
2022/04/07 04:07:11;;;;;;;12.95;8.52;;;8.50;91.10;;;;;;5054553;28;20064;-83
2022/04/07 04:09:37;;;;;;;11.07;8.13;;;8.40;91.80;;;;;;5060031;28;20025;-83
2022/04/07 04:12:03;;;;;;;13.00;8.85;;;8.30;92.50;;;;;;5045027;28;20111;-82
2022/04/07 04:14:29;;;;;;;11.43;9.45;;;8.20;92.70;;;;;;5054504;28;20039;-83
2022/04/07 04:16:55;;;;;;;13.80;10.32;;;8.20;93.20;;;;;;5055043;28;20024;-83
2022/04/07 04:19:20;;;;;;;13.45;10.23;;;8.10;93.30;;;;;;5070730;28;20025;-83
2022/04/07 04:21:46;;;;;;;13.50;10.13;;;8.10;93.50;;;;;;5050179;28;20147;-83
2022/04/07 04:24:12;;;;;;;14.38;10.55;;;8.10;93.80;;;;;;5046768;28;20032;-84
2022/04/07 04:26:38;;;;;;;12.50;10.50;;;8.10;93.80;;;;;;5050832;28;20051;-83
2022/04/07 04:29:03;;;;;;;12.20;10.10;;;8.10;93.90;;;;;;5050675;28;20066;-83
2022/04/07 04:31:29;;;;;;;14.68;10.88;;;8.10;94.00;;;;;;5056716;28;20025;-83
2022/04/07 04:33:55;;;;;;;13.38;10.55;;;8.10;94.00;;;;;;5052074;28;20024;-83
2022/04/07 04:36:21;;;;;;;15.27;10.27;;;8.10;93.80;;;;;;5051348;28;20070;-83
2022/04/07 04:38:47;;;;;;;12.23;9.20;;;8.10;93.70;;;;;;5075787;28;20021;-83
2022/04/07 04:41:13;;;;;;;11.82;9.15;;;8.20;93.40;;;;;;5070926;28;20636;-83
2022/04/07 04:43:39;;;;;;;14.32;9.10;;;8.10;93.30;;;;;;5070912;28;20029;-84
2022/04/07 04:46:04;;;;;;;12.68;8.27;;;8.20;93.20;;;;;;5062995;28;20067;-83
2022/04/07 04:48:30;;;;;;;9.10;6.95;;;8.20;92.80;;;;;;5069912;28;20021;-83
2022/04/07 04:50:56;;;;;;;8.20;6.45;;;8.30;91.60;;;;;;5069157;28;20335;-83
2022/04/07 04:53:22;;;;;;;9.32;6.93;;;8.30;91.60;;;;;;5070707;28;20047;-83
2022/04/07 04:55:48;;;;;;;9.30;6.13;;;8.30;91.50;;;;;;5070022;28;20079;-83
2022/04/07 04:58:14;;;;;;;6.93;5.40;;;8.30;91.50;;;;;;5070599;28;20021;-83
2022/04/07 05:00:40;;;;;;;11.30;5.40;;;8.30;91.00;;;;;;5072806;28;20069;-83
2022/04/07 05:03:06;;;;;;;7.00;4.97;;;8.30;90.90;;;;;;5071512;28;20024;-85
2022/04/07 05:05:31;;;;;;;10.48;5.40;;;8.30;91.20;;;;;;5073016;28;20078;-85
2022/04/07 05:07:58;;;;;;;15.63;6.22;;;8.20;91.80;;;;;;5061664;28;20472;-84
2022/04/07 05:10:24;;;;;;;11.65;6.20;;;8.10;92.10;;;;;;5072818;28;20021;-83
2022/04/07 05:12:51;;;;;;;8.32;5.97;;;8.10;92.40;;;;;;5075248;28;20486;-83
2022/04/07 05:15:16;;;;;;;8.32;6.35;;;8.10;92.70;;;;;;5075867;28;20033;-83
2022/04/07 05:17:47;;;;;;;9.82;6.25;;;8.00;93.00;;;;;;5073516;28;20035;-84
2022/04/07 05:20:13;;;;;;;8.98;6.50;;;8.00;93.20;;;;;;5060803;28;20032;-83
2022/04/07 05:22:38;;;;;;;9.75;6.35;;;8.00;93.30;;;;;;5076429;28;20074;-83
2022/04/07 05:25:04;;;;;;;8.60;6.13;;;8.10;92.80;;;;;;5061057;28;20104;-83
2022/04/07 05:27:32;;;;;;;10.60;6.03;;;8.10;92.80;;;;;;5062685;28;20093;-83
2022/04/07 05:29:59;;;;;;;12.10;6.35;;;8.20;92.70;;;;;;5075566;28;20028;-83
2022/04/07 05:32:24;;;;;;;11.65;6.60;;;8.20;92.80;;;;;;5068272;28;20384;-83
2022/04/07 05:34:50;;;;;;;10.35;7.43;;;8.20;92.80;;;;;;5056644;28;20024;-83
2022/04/07 05:37:15;;;;;;;12.65;7.75;;;8.20;92.80;;;;;;5056476;28;20020;-83
2022/04/07 05:39:41;;;;;;;10.60;7.80;;;8.20;92.60;;;;;;5074493;28;20039;-83
2022/04/07 05:42:06;;;;;;;12.07;8.55;;;8.20;92.60;;;;;;5058890;28;20017;-83
2022/04/07 05:44:32;;;;;;;13.55;7.05;;;8.20;92.70;;;;;;5051476;28;20589;-83
2022/04/07 05:46:57;;;;;;;12.65;7.95;;;8.20;92.70;;;;;;5049976;28;20059;-83
2022/04/07 05:49:23;;;;;;;13.52;8.48;;;8.30;92.50;;;;;;5052101;28;20030;-83
2022/04/07 05:51:50;;;;;;;12.10;8.98;;;8.30;92.40;;;;;;5045961;28;20056;-84
2022/04/07 05:54:18;;;;;;;11.38;8.68;;;8.20;92.50;;;;;;5071776;28;20024;-83
2022/04/07 05:56:44;;;;;;;12.63;9.10;;;8.30;92.40;;;;;;5055618;28;20554;-83
2022/04/07 05:59:09;;;;;;;10.65;8.93;;;8.30;92.50;;;;;;5056317;28;20063;-83
2022/04/07 06:01:35;;;;;;;12.18;8.85;;;8.20;92.70;;;;;;5056195;28;20016;-83
2022/04/07 06:04:00;;;;;;;13.57;8.70;;;8.20;92.90;;;;;;5056537;28;20452;-83
2022/04/07 06:06:26;;;;;;;12.13;8.35;;;8.20;92.60;;;;;;5060902;28;20028;-83
2022/04/07 06:08:51;;;;;;;12.63;8.68;;;8.30;92.70;;;;;;5056095;28;20032;-83
2022/04/07 06:11:17;;;;;;;13.18;8.75;;;8.30;92.90;;;;;;5053231;28;20036;-83
2022/04/07 06:13:43;;;;;;;12.00;8.68;;;8.30;92.80;;;;;;5074053;28;20034;-83
2022/04/07 06:16:09;;;;;;;12.15;8.70;;;8.20;92.90;;;;;;5074042;28;20040;-83
2022/04/07 06:18:34;;;;;;;10.27;8.20;;;8.30;92.90;;;;;;5036784;28;20125;-83
2022/04/07 06:21:00;;;;;;;14.20;7.50;;;8.40;92.70;;;;;;5052566;28;20032;-83
2022/04/07 06:23:26;;;;;;;12.23;7.70;;;8.40;92.50;;;;;;5055883;28;20472;-83
2022/04/07 06:25:52;;;;;;;11.70;6.57;;;8.50;92.00;;;;;;5055931;28;20044;-83
2022/04/07 06:28:22;;;;;;;8.80;5.63;;;8.50;92.00;;;;;;5055639;28;20506;-84
2022/04/07 06:30:48;;;;;;;9.60;6.03;;;8.60;91.20;;;;;;5053862;28;20109;-83
2022/04/07 06:33:13;;;;;;;13.55;6.55;;;8.60;90.90;;;;;;5065879;28;20033;-83
2022/04/07 06:35:39;;;;;;;8.85;5.07;;;8.70;91.20;;;;;;5055700;28;20048;-83
2022/04/07 06:38:05;;;;;;;10.05;5.05;;;8.70;90.90;;;;;;5072864;28;20029;-83
2022/04/07 06:40:30;;;;;;;17.13;5.43;;;8.80;90.40;;;;;;5073632;28;20059;-84
2022/04/07 06:42:58;;;;;;;8.32;4.60;;;8.90;89.80;;;;;;5072547;28;20124;-83
2022/04/07 06:45:27;;;;;;;9.65;4.43;;;9.10;89.50;;;;;;5059617;28;20138;-83
2022/04/07 06:47:54;;;;;;;7.07;4.00;;;9.10;88.80;;;;;;5071358;28;20033;-83
2022/04/07 06:50:20;;;;;;;11.00;4.03;;;9.20;88.20;;;;;;5070916;28;20028;-83
2022/04/07 06:52:46;;;;;;;7.18;3.45;;;9.10;88.20;;;;;;5064424;28;20024;-83
2022/04/07 06:55:13;;;;;;;8.25;3.65;;;9.10;88.10;;;;;;5072388;28;20040;-83
2022/04/07 06:57:51;;;;;;;11.48;3.58;;;9.10;87.90;;;;;;5069811;28;20118;-83
2022/04/07 07:00:18;;;;;;;8.20;2.88;;;9.00;87.50;;;;;;5072191;28;20490;-83
2022/04/07 07:02:54;;;;;;;9.05;3.15;;;9.10;87.60;;;;;;5068956;28;20468;-83
2022/04/07 07:05:21;;;;;;;6.20;2.78;;;9.10;87.40;;;;;;5067420;28;20028;-83
2022/04/07 07:07:46;;;;;;;9.48;3.10;;;9.10;87.40;;;;;;5071778;28;20017;-83
2022/04/07 07:10:12;;;;;;;5.78;2.85;;;9.30;87.30;;;;;;5072873;28;20043;-83
2022/04/07 07:12:38;;;;;;;6.78;2.85;;;9.40;87.10;;;;;;5073540;28;20024;-83
2022/04/07 07:15:04;;;;;;;7.60;3.00;;;9.40;86.50;;;;;;5072552;28;20035;-83
2022/04/07 07:17:33;;;;;;;9.40;3.28;;;9.40;86.40;;;;;;5071434;28;20060;-83
2022/04/07 07:20:13;;;;;;;6.97;3.13;;;9.40;86.40;;;;;;5070247;28;20029;-83
2022/04/07 07:22:39;;;;;;;4.70;2.03;;;9.60;86.10;;;;;;5059110;28;20095;-83
2022/04/07 07:25:05;;;;;;;7.88;2.90;;;9.70;84.60;;;;;;5070798;28;20082;-83
2022/04/07 07:27:45;;;;;;;4.68;2.60;;;9.80;84.60;;;;;;5069238;28;20115;-83
2022/04/07 07:30:12;;;;;;;7.43;2.38;;;9.70;85.10;;;;;;5056158;28;20369;-83
2022/04/07 07:32:39;;;;;;;8.13;2.17;;;9.80;84.20;;;;;;5070196;28;20032;-83
2022/04/07 07:35:06;;;;;;;8.35;2.53;;;9.80;83.80;;;;;;5063454;28;20056;-83
2022/04/07 07:37:32;;;;;;;4.90;2.38;;;9.80;84.30;;;;;;5072258;28;20025;-83
2022/04/07 07:40:02;;;;;;;6.22;2.25;;;9.80;83.90;;;;;;5055433;28;20043;-83
2022/04/07 07:42:28;;;;;;;6.25;2.25;;;9.70;84.20;;;;;;5050451;28;20021;-83
2022/04/07 07:44:53;;;;;;;6.60;2.38;;;9.70;84.10;;;;;;5055083;28;20658;-83
2022/04/07 07:47:19;;;;;;;4.22;1.92;;;9.60;84.70;;;;;;5055605;28;20024;-83
2022/04/07 07:49:44;;;;;;;7.68;2.20;;;9.60;85.30;;;;;;5054417;28;20021;-83
2022/04/07 07:52:10;;;;;;;6.55;2.28;;;9.60;85.10;;;;;;5055165;28;20020;-83
2022/04/07 07:54:35;;;;;;;5.53;1.85;;;9.50;85.40;;;;;;5054400;28;20024;-83
2022/04/07 07:57:01;;;;;;;2.90;1.95;;;9.50;84.70;;;;;;5071140;28;20125;-83
2022/04/07 07:59:26;;;;;;;6.68;2.28;;;9.50;85.00;;;;;;5052934;28;20383;-83
2022/04/07 08:01:52;;;;;;;4.78;1.70;;;9.30;86.50;;;;;;5071523;28;20428;-85
2022/04/07 08:04:17;;;;;;;5.47;2.47;;;9.30;86.00;;;;;;5051897;28;20136;-84
2022/04/07 08:06:43;;;;;;;5.38;2.47;;;9.10;87.70;;;;;;5057562;28;20029;-84
2022/04/07 08:09:10;;;;;;;9.07;2.80;;;9.00;88.90;;;;;;5053623;28;20081;-85
2022/04/07 08:11:36;;;;;;;9.10;2.50;;;8.80;89.20;;;;;;5054407;28;20522;-84
2022/04/07 08:14:02;;;;;;;8.73;3.05;;;8.80;90.40;;;;;;5071940;28;20617;-84
2022/04/07 08:16:30;;;;;;;5.78;2.42;;;8.60;90.80;;;;;;5046260;28;20025;-84
2022/04/07 08:18:56;;;;;;;6.07;2.80;;;8.60;91.10;;;;;;5070601;28;20021;-84
2022/04/07 08:21:21;;;;;;;6.85;2.80;;;8.60;91.70;;;;;;5050594;28;20029;-84
2022/04/07 08:23:47;;;;;;;8.05;2.47;;;8.60;91.90;;;;;;5064050;28;20357;-84
2022/04/07 08:26:12;;;;;;;5.57;2.35;;;8.50;92.30;;;;;;5048840;28;20116;-84
2022/04/07 08:28:39;;;;;;;5.20;2.30;;;8.50;92.30;;;;;;5054153;28;20086;-85
2022/04/07 08:31:04;;;;;;;5.03;2.20;;;8.60;92.00;;;;;;5053832;28;20039;-85
2022/04/07 08:33:30;;;;;;;4.35;2.30;;;8.50;92.60;;;;;;5052685;28;20480;-85
2022/04/07 08:35:55;;;;;;;5.28;2.50;;;8.50;92.90;;;;;;5041228;28;20056;-84
2022/04/07 08:38:21;;;;;;;2.35;1.75;;;8.50;93.30;;;;;;5035826;28;20036;-84
2022/04/07 08:40:51;;;;;;;4.32;2.20;;;8.50;93.20;;;;;;5037608;28;20473;-84
2022/04/07 08:43:20;;;;;;;6.47;2.20;;;8.50;93.20;;;;;;5036887;28;20460;-85
2022/04/07 08:45:45;;;;;;;4.63;2.03;;;8.50;93.40;;;;;;5037234;28;20384;-84
2022/04/07 08:48:12;;;;;;;4.80;1.73;;;8.50;93.70;;;;;;5036449;28;20029;-84
2022/04/07 08:50:43;;;;;;;4.25;1.88;;;8.50;93.70;;;;;;5025258;28;20038;-84
2022/04/07 08:53:10;;;;;;;0.82;0.50;;;8.50;93.70;;;;;;5036367;28;20032;-84
2022/04/07 08:55:36;;;;;;;2.80;0.70;;;6.60;90.20;;;;;;5035816;28;20033;-84
2022/04/07 08:58:02;;;;;;;2.40;0.70;;;4.80;92.90;;;;;;5053288;28;20035;-85
2022/04/07 09:00:27;;;;;;;1.30;0.50;;;4.30;94.20;;;;;;5034487;28;20570;-85
2022/04/07 09:02:53;;;;;;;0.82;0.50;;;4.30;95.00;;;;;;5037736;28;20032;-84
2022/04/07 09:05:24;;;;;;;1.95;0.60;;;4.30;95.20;;;;;;5041186;28;20581;-84
2022/04/07 09:07:54;;;;;;;1.37;0.70;;;4.40;95.40;;;;;;5025980;28;20029;-84
2022/04/07 09:10:22;;;;;;;1.80;0.77;;;4.50;95.70;;;;;;5036887;28;20025;-84
2022/04/07 09:12:48;;;;;;;1.33;0.52;;;4.60;95.80;;;;;;5034995;28;20040;-84
2022/04/07 09:15:14;;;;;;;2.67;0.75;;;4.60;95.60;;;;;;5024479;28;20104;-84
2022/04/07 09:17:54;;;;;;;2.20;0.50;;;4.70;95.80;;;;;;5023702;28;20052;-84
2022/04/07 09:20:21;;;;;;;3.90;1.00;;;4.70;95.80;;;;;;5052431;28;20115;-84
2022/04/07 09:23:01;;;;;;;1.58;0.63;;;4.70;95.70;;;;;;5035475;28;20489;-84
2022/04/07 09:25:27;;;;;;;2.15;0.77;;;4.70;95.70;;;;;;5034367;28;20021;-83
2022/04/07 09:27:54;;;;;;;2.53;0.90;;;4.80;95.60;;;;;;5026996;28;20075;-84
2022/04/07 09:30:20;;;;;;;0.95;0.63;;;4.90;95.80;;;;;;5036571;28;20064;-84
2022/04/07 09:32:46;;;;;;;1.27;0.50;;;4.80;95.70;;;;;;5053795;28;20017;-84
2022/04/07 09:35:12;;;;;;;1.35;0.55;;;4.90;95.70;;;;;;5031971;28;20053;-84
2022/04/07 09:37:40;;;;;;;2.20;0.57;;;5.00;95.70;;;;;;5046122;28;20029;-85
2022/04/07 09:40:09;;;;;;;2.38;0.70;;;5.10;95.50;;;;;;5054527;28;20048;-84
2022/04/07 09:42:35;;;;;;;1.05;0.60;;;5.10;95.50;;;;;;5030110;28;20047;-84
2022/04/07 09:45:03;;;;;;;1.60;0.80;;;5.00;95.30;;;;;;5036474;28;20484;-84
2022/04/07 09:47:41;;;;;;;1.17;0.75;;;4.90;95.30;;;;;;5023495;28;20477;-84
2022/04/07 09:50:29;;;;;;;1.73;0.80;;;5.00;95.50;;;;;;5020801;28;20028;-84
2022/04/07 09:52:59;;;;;;;2.50;0.90;;;5.00;95.50;;;;;;5054124;28;20047;-85
2022/04/07 09:55:34;;;;;;;1.67;0.88;;;5.00;95.40;;;;;;5053916;28;20453;-84
2022/04/07 09:58:01;;;;;;;1.63;0.80;;;5.00;95.30;;;;;;5030429;28;20034;-85
2022/04/07 10:00:27;;;;;;;3.47;0.93;;;4.90;95.20;;;;;;5050359;28;20036;-84
2022/04/07 10:02:54;;;;;;;1.95;1.00;;;5.00;95.30;;;;;;5035327;28;20037;-84
2022/04/07 10:05:20;;;;;;;2.33;0.95;;;5.00;95.10;;;;;;5034842;28;20059;-84
2022/04/07 10:07:48;;;;;;;3.58;1.20;;;5.00;95.20;;;;;;5029499;28;20037;-84
2022/04/07 10:10:14;;;;;;;2.42;1.20;;;5.00;95.10;;;;;;5029334;28;20036;-84
2022/04/07 10:12:41;;;;;;;4.43;1.63;;;5.00;95.10;;;;;;5035922;28;20025;-85
2022/04/07 10:15:07;;;;;;;1.95;1.10;;;5.00;95.10;;;;;;5029025;28;20064;-85
2022/04/07 10:17:35;;;;;;;2.55;1.30;;;5.00;94.90;;;;;;5029294;28;20036;-84
2022/04/07 10:20:05;;;;;;;2.33;1.40;;;5.00;95.20;;;;;;5027115;28;20395;-85
2022/04/07 10:22:39;;;;;;;2.90;1.08;;;5.00;95.00;;;;;;5053508;28;20037;-84
2022/04/07 10:25:06;;;;;;;2.72;1.30;;;4.90;95.00;;;;;;5029374;28;20032;-85
2022/04/07 10:27:38;;;;;;;2.15;1.00;;;4.90;95.10;;;;;;5035633;28;20429;-85
2022/04/07 10:30:10;;;;;;;1.77;0.90;;;4.80;94.90;;;;;;5035693;28;20480;-85
2022/04/07 10:32:40;;;;;;;2.03;1.10;;;4.80;95.10;;;;;;5041503;28;20544;-84
2022/04/07 10:35:06;;;;;;;0.95;0.68;;;4.80;94.90;;;;;;5054755;28;20044;-85
2022/04/07 10:37:40;;;;;;;4.80;1.17;;;4.80;94.70;;;;;;5072468;28;20024;-85
2022/04/07 10:40:31;;;;;;;1.13;0.63;;;4.80;94.80;;;;;;5053456;28;20107;-85
2022/04/07 10:43:15;;;;;;;1.63;1.00;;;4.80;94.80;;;;;;5048722;28;20388;-85
2022/04/07 10:45:42;;;;;;;2.42;0.70;;;4.70;94.60;;;;;;5043520;28;20029;-85
2022/04/07 10:48:19;;;;;;;2.10;0.52;;;4.70;94.40;;;;;;5054144;28;20098;-85
2022/04/07 10:50:53;;;;;;;2.20;0.90;;;4.60;94.50;;;;;;5054834;28;20021;-86
2022/04/07 10:53:19;;;;;;;1.13;0.75;;;4.70;94.60;;;;;;5055373;28;20028;-85
2022/04/07 10:55:57;;;;;;;1.02;0.73;;;4.70;94.40;;;;;;5054475;28;20033;-84
2022/04/07 10:58:46;;;;;;;1.45;0.70;;;4.70;94.50;;;;;;5051693;28;20056;-83
2022/04/07 11:01:14;;;;;;;2.53;0.85;;;4.80;94.60;;;;;;5064618;28;20039;-83
2022/04/07 11:03:41;;;;;;;1.70;0.82;;;4.80;94.60;;;;;;5077582;28;20024;-83
2022/04/07 11:06:07;;;;;;;1.92;0.80;;;4.80;94.60;;;;;;5070933;28;20020;-83
2022/04/07 11:08:33;;;;;;;1.27;0.70;;;5.00;94.60;;;;;;5073418;28;20071;-83
2022/04/07 11:10:59;;;;;;;2.13;0.70;;;5.00;94.40;;;;;;5055405;28;20028;-83
2022/04/07 11:13:43;;;;;;;1.60;0.70;;;5.20;94.30;;;;;;5055275;28;20028;-83
2022/04/07 11:16:24;;;;;;;1.13;0.75;;;5.90;94.80;;;;;;5072587;28;20050;-83
2022/04/07 11:19:15;;;;;;;2.20;0.82;;;6.70;94.80;;;;;;5072280;28;20021;-83
2022/04/07 11:21:48;;;;;;;1.20;0.52;;;6.70;92.70;;;;;;5054367;28;20054;-83
2022/04/07 11:24:23;;;;;;;2.05;0.52;;;6.70;91.80;;;;;;5061583;28;20039;-83
2022/04/07 11:26:52;;;;;;;1.65;0.60;;;6.90;91.30;;;;;;5071660;28;20038;-84
2022/04/07 11:29:35;;;;;;;0.75;0.35;;;7.30;91.00;;;;;;5054939;28;20021;-84
2022/04/07 11:32:09;;;;;;;1.95;0.52;;;7.40;90.00;;;;;;5055395;28;20482;-84
2022/04/07 11:34:40;;;;;;;1.65;0.40;;;7.60;90.10;;;;;;5052248;28;20033;-83
2022/04/07 11:37:07;;;;;;;1.17;0.60;;;7.70;89.60;;;;;;5054243;28;20040;-83
2022/04/07 11:39:33;;;;;;;2.47;0.63;;;7.40;88.40;;;;;;5071732;28;20025;-83
2022/04/07 11:42:00;;;;;;;1.65;0.60;;;7.90;89.10;;;;;;5055392;28;20070;-83
2022/04/07 11:44:26;;;;;;;0.90;0.60;;;7.70;88.60;;;;;;5073082;28;20029;-83
2022/04/07 11:46:51;;;;;;;1.13;0.63;;;7.60;87.80;;;;;;5055547;28;20639;-82
2022/04/07 11:49:17;;;;;;;2.90;0.60;;;7.70;89.50;;;;;;5050972;28;20041;-83
2022/04/07 11:51:45;;;;;;;3.47;0.73;;;7.80;88.60;;;;;;5065246;28;20036;-83
2022/04/07 11:54:15;;;;;;;1.25;0.63;;;7.80;88.40;;;;;;5054812;28;20029;-83
2022/04/07 11:56:41;;;;;;;0.90;0.52;;;8.30;88.60;;;;;;5053384;28;20042;-83
2022/04/07 11:59:11;;;;;;;2.05;0.70;;;8.40;85.80;;;;;;5073216;28;20028;-83
2022/04/07 12:01:38;;;;;;;1.00;0.50;;;8.50;86.70;;;;;;5044969;28;20017;-82
2022/04/07 12:04:06;;;;;;;3.75;0.80;;;8.60;85.50;;;;;;5053186;28;20016;-82
2022/04/07 12:06:33;;;;;;;2.20;0.68;;;9.00;86.20;;;;;;5050032;28;20692;-82
2022/04/07 12:09:01;;;;;;;1.75;0.60;;;9.10;85.30;;;;;;5072808;28;20024;-82
2022/04/07 12:11:28;;;;;;;2.53;0.60;;;8.80;84.40;;;;;;5055516;28;20020;-82
2022/04/07 12:13:55;;;;;;;2.33;0.80;;;8.20;85.30;;;;;;5055612;28;20110;-82
2022/04/07 12:16:24;;;;;;;2.13;0.90;;;8.10;85.80;;;;;;5053979;28;20028;-82
2022/04/07 12:19:04;;;;;;;2.00;0.80;;;8.10;86.20;;;;;;5078395;28;20035;-81
2022/04/07 12:21:50;;;;;;;3.15;0.55;;;8.80;86.90;;;;;;5054977;28;20110;-82
2022/04/07 12:24:15;;;;;;;4.72;0.77;;;8.80;82.70;;;;;;5075853;28;20076;-82
2022/04/07 12:26:43;;;;;;;2.78;0.90;;;9.50;83.40;;;;;;5078013;28;20432;-82
2022/04/07 12:29:16;;;;;;;2.33;0.70;;;9.80;81.40;;;;;;5060775;28;20036;-82
2022/04/07 12:31:42;;;;;;;3.97;0.88;;;10.00;79.90;;;;;;5060678;28;20039;-82
2022/04/07 12:34:12;;;;;;;3.78;0.90;;;10.20;79.60;;;;;;5077473;28;20032;-82
2022/04/07 12:36:41;;;;;;;2.63;0.63;;;10.50;79.60;;;;;;5060078;28;20354;-84
2022/04/07 12:39:10;;;;;;;1.40;0.50;;;10.10;79.60;;;;;;5079265;28;20051;-83
2022/04/07 12:41:39;;;;;;;3.47;0.90;;;9.60;80.20;;;;;;5060898;28;20024;-82
2022/04/07 12:44:06;;;;;;;3.70;0.90;;;9.30;80.00;;;;;;5060971;28;20031;-82
2022/04/07 12:46:56;;;;;;;3.22;1.17;;;9.10;80.60;;;;;;5061699;28;20086;-83
2022/04/07 12:49:33;;;;;;;5.07;1.05;;;9.60;79.60;;;;;;5077130;28;20458;-83
2022/04/07 12:52:02;;;;;;;7.53;1.08;;;10.40;79.10;;;;;;5059405;28;20112;-83
2022/04/07 12:54:28;;;;;;;7.28;1.15;;;10.10;77.10;;;;;;5060272;28;20020;-83